MVA weather

Reykjahlíð Airport
Myvatn, Northeastern Region, Iceland

Public forecast

Using degrees Celsius for public forecast. Weather courtesy of forecast.io.

METAR (pilot weather report)

Report is more than 6 hours old.

Closest report is Húsavík Airport, 21.8 nm (40.3 km) NW. Retrieved 2019/04/25 13:32 UTC (2 months ago):

BIHU 251332Z 32010KT CAVOK 16/04 Q1004 R02/090095

TAF (pilot weather forecast)

Closest forecast is Akureyri Airport, 28.6 nm (52.9 km) W. Retrieved 2019/06/25 09:21 UTC (0 seconds ago):

TAF TAF BIAR 250717Z 2509/2609 22015KT 9999 BKN050 TX18/2516Z TN10/2604Z TEMPO 2509/2609 22020G30KT